sensor_id;sensor_type;location;lat;lon;timestamp;P1;durP1;ratioP1;P2;durP2;ratioP2
13335;SDS011;6737;51.480;11.962;2023-05-01T00:00:05;8.93;;;4.63;;
13335;SDS011;6737;51.480;11.962;2023-05-01T00:02:31;8.57;;;4.43;;
13335;SDS011;6737;51.480;11.962;2023-05-01T00:04:57;10.90;;;4.70;;
13335;SDS011;6737;51.480;11.962;2023-05-01T00:07:23;8.63;;;4.60;;
13335;SDS011;6737;51.480;11.962;2023-05-01T00:09:49;7.47;;;4.50;;
13335;SDS011;6737;51.480;11.962;2023-05-01T00:12:16;8.40;;;4.53;;
13335;SDS011;6737;51.480;11.962;2023-05-01T00:14:42;10.10;;;4.67;;
13335;SDS011;6737;51.480;11.962;2023-05-01T00:17:07;10.67;;;4.50;;
13335;SDS011;6737;51.480;11.962;2023-05-01T00:19:33;9.13;;;4.20;;
13335;SDS011;6737;51.480;11.962;2023-05-01T00:21:59;9.10;;;4.70;;
13335;SDS011;6737;51.480;11.962;2023-05-01T00:24:25;8.67;;;4.63;;
13335;SDS011;6737;51.480;11.962;2023-05-01T00:26:51;8.10;;;4.37;;
13335;SDS011;6737;51.480;11.962;2023-05-01T00:29:17;7.53;;;4.20;;
13335;SDS011;6737;51.480;11.962;2023-05-01T00:31:43;7.40;;;4.50;;
13335;SDS011;6737;51.480;11.962;2023-05-01T00:34:09;8.97;;;5.00;;
13335;SDS011;6737;51.480;11.962;2023-05-01T00:36:36;7.83;;;4.93;;
13335;SDS011;6737;51.480;11.962;2023-05-01T00:39:02;7.30;;;4.90;;
13335;SDS011;6737;51.480;11.962;2023-05-01T00:41:28;10.57;;;4.90;;
13335;SDS011;6737;51.480;11.962;2023-05-01T00:43:54;8.57;;;5.00;;
13335;SDS011;6737;51.480;11.962;2023-05-01T00:46:19;8.77;;;5.07;;
13335;SDS011;6737;51.480;11.962;2023-05-01T00:48:45;9.77;;;5.40;;
13335;SDS011;6737;51.480;11.962;2023-05-01T00:51:11;9.83;;;5.60;;
13335;SDS011;6737;51.480;11.962;2023-05-01T00:53:41;12.07;;;5.30;;
13335;SDS011;6737;51.480;11.962;2023-05-01T00:56:07;8.07;;;5.10;;
13335;SDS011;6737;51.480;11.962;2023-05-01T00:58:35;9.67;;;5.53;;
13335;SDS011;6737;51.480;11.962;2023-05-01T01:01:01;8.67;;;5.23;;
13335;SDS011;6737;51.480;11.962;2023-05-01T01:03:27;8.07;;;5.13;;
13335;SDS011;6737;51.480;11.962;2023-05-01T01:05:56;7.50;;;5.30;;
13335;SDS011;6737;51.480;11.962;2023-05-01T01:08:37;10.33;;;5.80;;
13335;SDS011;6737;51.480;11.962;2023-05-01T01:11:16;7.90;;;5.87;;
13335;SDS011;6737;51.480;11.962;2023-05-01T01:14:02;10.67;;;5.70;;
13335;SDS011;6737;51.480;11.962;2023-05-01T01:16:47;11.37;;;5.70;;
13335;SDS011;6737;51.480;11.962;2023-05-01T01:21:51;11.67;;;5.90;;
13335;SDS011;6737;51.480;11.962;2023-05-01T01:27:18;11.80;;;5.90;;
13335;SDS011;6737;51.480;11.962;2023-05-01T01:30:05;11.97;;;6.20;;
13335;SDS011;6737;51.480;11.962;2023-05-01T01:35:38;10.73;;;6.63;;
13335;SDS011;6737;51.480;11.962;2023-05-01T01:38:21;10.83;;;6.70;;
13335;SDS011;6737;51.480;11.962;2023-05-01T01:40:57;12.07;;;6.17;;
13335;SDS011;6737;51.480;11.962;2023-05-01T01:43:32;12.77;;;7.17;;
13335;SDS011;6737;51.480;11.962;2023-05-01T01:46:04;11.47;;;7.13;;
13335;SDS011;6737;51.480;11.962;2023-05-01T01:48:33;10.50;;;6.63;;
13335;SDS011;6737;51.480;11.962;2023-05-01T01:51:05;12.03;;;6.73;;
13335;SDS011;6737;51.480;11.962;2023-05-01T01:53:34;11.47;;;6.90;;
13335;SDS011;6737;51.480;11.962;2023-05-01T01:56:04;10.77;;;7.07;;
13335;SDS011;6737;51.480;11.962;2023-05-01T01:58:32;11.80;;;6.50;;
13335;SDS011;6737;51.480;11.962;2023-05-01T02:01:01;10.93;;;6.73;;
13335;SDS011;6737;51.480;11.962;2023-05-01T02:03:27;11.43;;;6.60;;
13335;SDS011;6737;51.480;11.962;2023-05-01T02:05:55;12.83;;;7.10;;
13335;SDS011;6737;51.480;11.962;2023-05-01T02:08:22;11.23;;;6.57;;
13335;SDS011;6737;51.480;11.962;2023-05-01T02:10:49;8.83;;;6.43;;
13335;SDS011;6737;51.480;11.962;2023-05-01T02:13:22;9.70;;;6.83;;
13335;SDS011;6737;51.480;11.962;2023-05-01T02:15:49;11.83;;;7.37;;
13335;SDS011;6737;51.480;11.962;2023-05-01T02:18:16;12.47;;;7.53;;
13335;SDS011;6737;51.480;11.962;2023-05-01T02:20:43;15.27;;;6.80;;
13335;SDS011;6737;51.480;11.962;2023-05-01T02:23:09;15.07;;;6.50;;
13335;SDS011;6737;51.480;11.962;2023-05-01T02:25:37;13.33;;;6.97;;
13335;SDS011;6737;51.480;11.962;2023-05-01T02:28:13;11.13;;;6.50;;
13335;SDS011;6737;51.480;11.962;2023-05-01T02:30:48;12.23;;;6.13;;
13335;SDS011;6737;51.480;11.962;2023-05-01T02:33:14;11.00;;;6.50;;
13335;SDS011;6737;51.480;11.962;2023-05-01T02:35:40;11.20;;;6.73;;
13335;SDS011;6737;51.480;11.962;2023-05-01T02:38:09;11.03;;;6.20;;
13335;SDS011;6737;51.480;11.962;2023-05-01T02:40:37;11.90;;;6.97;;
13335;SDS011;6737;51.480;11.962;2023-05-01T02:43:05;12.83;;;5.90;;
13335;SDS011;6737;51.480;11.962;2023-05-01T02:45:34;11.37;;;6.63;;
13335;SDS011;6737;51.480;11.962;2023-05-01T02:48:04;11.70;;;6.30;;
13335;SDS011;6737;51.480;11.962;2023-05-01T02:50:32;10.73;;;6.10;;
13335;SDS011;6737;51.480;11.962;2023-05-01T02:52:59;10.60;;;6.50;;
13335;SDS011;6737;51.480;11.962;2023-05-01T02:55:25;13.57;;;7.23;;
13335;SDS011;6737;51.480;11.962;2023-05-01T02:57:52;9.90;;;6.23;;
13335;SDS011;6737;51.480;11.962;2023-05-01T03:00:22;12.10;;;6.70;;
13335;SDS011;6737;51.480;11.962;2023-05-01T03:02:47;18.07;;;6.83;;
13335;SDS011;6737;51.480;11.962;2023-05-01T03:05:13;10.50;;;6.53;;
13335;SDS011;6737;51.480;11.962;2023-05-01T03:07:39;12.57;;;6.33;;
13335;SDS011;6737;51.480;11.962;2023-05-01T03:10:05;12.10;;;7.30;;
13335;SDS011;6737;51.480;11.962;2023-05-01T03:12:32;14.20;;;6.90;;
13335;SDS011;6737;51.480;11.962;2023-05-01T03:14:58;13.27;;;7.13;;
13335;SDS011;6737;51.480;11.962;2023-05-01T03:17:24;12.40;;;6.63;;
13335;SDS011;6737;51.480;11.962;2023-05-01T03:19:51;13.60;;;7.00;;
13335;SDS011;6737;51.480;11.962;2023-05-01T03:22:16;10.07;;;7.00;;
13335;SDS011;6737;51.480;11.962;2023-05-01T03:24:42;14.73;;;6.70;;
13335;SDS011;6737;51.480;11.962;2023-05-01T03:27:08;11.07;;;7.03;;
13335;SDS011;6737;51.480;11.962;2023-05-01T03:29:34;11.33;;;6.60;;
13335;SDS011;6737;51.480;11.962;2023-05-01T03:32:02;12.93;;;6.90;;
13335;SDS011;6737;51.480;11.962;2023-05-01T03:34:29;13.77;;;6.10;;
13335;SDS011;6737;51.480;11.962;2023-05-01T03:36:54;11.53;;;6.90;;
13335;SDS011;6737;51.480;11.962;2023-05-01T03:39:21;11.90;;;7.10;;
13335;SDS011;6737;51.480;11.962;2023-05-01T03:41:47;16.07;;;6.80;;
13335;SDS011;6737;51.480;11.962;2023-05-01T03:44:13;14.83;;;7.40;;
13335;SDS011;6737;51.480;11.962;2023-05-01T03:46:38;12.90;;;7.40;;
13335;SDS011;6737;51.480;11.962;2023-05-01T03:49:05;14.20;;;7.63;;
13335;SDS011;6737;51.480;11.962;2023-05-01T03:51:31;13.00;;;7.60;;
13335;SDS011;6737;51.480;11.962;2023-05-01T03:53:57;11.70;;;7.23;;
13335;SDS011;6737;51.480;11.962;2023-05-01T03:56:23;12.30;;;7.40;;
13335;SDS011;6737;51.480;11.962;2023-05-01T03:58:50;13.10;;;7.53;;
13335;SDS011;6737;51.480;11.962;2023-05-01T04:01:17;12.10;;;7.00;;
13335;SDS011;6737;51.480;11.962;2023-05-01T04:03:43;12.83;;;7.00;;
13335;SDS011;6737;51.480;11.962;2023-05-01T04:06:10;13.30;;;7.13;;
13335;SDS011;6737;51.480;11.962;2023-05-01T04:08:37;12.13;;;6.93;;
13335;SDS011;6737;51.480;11.962;2023-05-01T04:11:03;11.13;;;6.70;;
13335;SDS011;6737;51.480;11.962;2023-05-01T04:13:29;12.80;;;6.73;;
13335;SDS011;6737;51.480;11.962;2023-05-01T04:15:55;9.90;;;6.70;;
13335;SDS011;6737;51.480;11.962;2023-05-01T04:18:24;9.60;;;6.23;;
13335;SDS011;6737;51.480;11.962;2023-05-01T04:20:50;10.33;;;6.90;;
13335;SDS011;6737;51.480;11.962;2023-05-01T04:23:16;10.80;;;6.80;;
13335;SDS011;6737;51.480;11.962;2023-05-01T04:25:42;14.00;;;6.80;;
13335;SDS011;6737;51.480;11.962;2023-05-01T04:28:11;12.27;;;7.27;;
13335;SDS011;6737;51.480;11.962;2023-05-01T04:30:37;11.37;;;6.57;;
13335;SDS011;6737;51.480;11.962;2023-05-01T04:33:03;12.10;;;7.37;;
13335;SDS011;6737;51.480;11.962;2023-05-01T04:35:36;12.27;;;6.83;;
13335;SDS011;6737;51.480;11.962;2023-05-01T04:38:05;12.60;;;6.77;;
13335;SDS011;6737;51.480;11.962;2023-05-01T04:40:32;13.73;;;6.77;;
13335;SDS011;6737;51.480;11.962;2023-05-01T04:42:58;13.47;;;6.73;;
13335;SDS011;6737;51.480;11.962;2023-05-01T04:45:25;10.70;;;7.30;;
13335;SDS011;6737;51.480;11.962;2023-05-01T04:47:50;11.77;;;7.10;;
13335;SDS011;6737;51.480;11.962;2023-05-01T04:50:16;15.20;;;7.10;;
13335;SDS011;6737;51.480;11.962;2023-05-01T04:52:42;12.13;;;7.20;;
13335;SDS011;6737;51.480;11.962;2023-05-01T04:55:08;13.67;;;6.77;;
13335;SDS011;6737;51.480;11.962;2023-05-01T04:57:34;11.87;;;7.00;;
13335;SDS011;6737;51.480;11.962;2023-05-01T05:00:00;13.90;;;6.80;;
13335;SDS011;6737;51.480;11.962;2023-05-01T05:02:27;13.00;;;7.03;;
13335;SDS011;6737;51.480;11.962;2023-05-01T05:04:53;11.93;;;6.90;;
13335;SDS011;6737;51.480;11.962;2023-05-01T05:07:19;10.23;;;6.70;;
13335;SDS011;6737;51.480;11.962;2023-05-01T05:09:45;13.17;;;6.87;;
13335;SDS011;6737;51.480;11.962;2023-05-01T05:12:11;10.27;;;6.90;;
13335;SDS011;6737;51.480;11.962;2023-05-01T05:14:39;9.90;;;6.30;;
13335;SDS011;6737;51.480;11.962;2023-05-01T05:17:05;13.43;;;6.60;;
13335;SDS011;6737;51.480;11.962;2023-05-01T05:19:31;11.43;;;6.73;;
13335;SDS011;6737;51.480;11.962;2023-05-01T05:21:57;11.37;;;6.40;;
13335;SDS011;6737;51.480;11.962;2023-05-01T05:24:23;10.27;;;6.37;;
13335;SDS011;6737;51.480;11.962;2023-05-01T05:26:49;11.80;;;7.03;;
13335;SDS011;6737;51.480;11.962;2023-05-01T05:29:15;12.07;;;7.00;;
13335;SDS011;6737;51.480;11.962;2023-05-01T05:31:41;11.00;;;6.77;;
13335;SDS011;6737;51.480;11.962;2023-05-01T05:34:07;12.17;;;7.00;;
13335;SDS011;6737;51.480;11.962;2023-05-01T05:36:33;9.37;;;6.30;;
13335;SDS011;6737;51.480;11.962;2023-05-01T05:39:00;12.60;;;8.40;;
13335;SDS011;6737;51.480;11.962;2023-05-01T05:41:25;13.83;;;8.47;;
13335;SDS011;6737;51.480;11.962;2023-05-01T05:43:51;14.47;;;7.90;;
13335;SDS011;6737;51.480;11.962;2023-05-01T05:46:18;13.83;;;8.00;;
13335;SDS011;6737;51.480;11.962;2023-05-01T05:48:44;14.63;;;8.20;;
13335;SDS011;6737;51.480;11.962;2023-05-01T05:51:10;11.97;;;7.60;;
13335;SDS011;6737;51.480;11.962;2023-05-01T05:53:36;14.07;;;7.93;;
13335;SDS011;6737;51.480;11.962;2023-05-01T05:56:02;11.97;;;7.70;;
13335;SDS011;6737;51.480;11.962;2023-05-01T05:58:29;14.03;;;8.43;;
13335;SDS011;6737;51.480;11.962;2023-05-01T06:00:55;14.73;;;8.80;;
13335;SDS011;6737;51.480;11.962;2023-05-01T06:03:21;14.27;;;8.20;;
13335;SDS011;6737;51.480;11.962;2023-05-01T06:05:47;16.50;;;9.23;;
13335;SDS011;6737;51.480;11.962;2023-05-01T06:08:13;12.43;;;8.73;;
13335;SDS011;6737;51.480;11.962;2023-05-01T06:10:41;14.33;;;8.60;;
13335;SDS011;6737;51.480;11.962;2023-05-01T06:13:08;14.70;;;8.60;;
13335;SDS011;6737;51.480;11.962;2023-05-01T06:15:38;14.70;;;8.47;;
13335;SDS011;6737;51.480;11.962;2023-05-01T06:18:04;14.37;;;8.93;;
13335;SDS011;6737;51.480;11.962;2023-05-01T06:20:32;15.03;;;9.30;;
13335;SDS011;6737;51.480;11.962;2023-05-01T06:22:57;15.03;;;8.87;;
13335;SDS011;6737;51.480;11.962;2023-05-01T06:25:23;12.67;;;8.23;;
13335;SDS011;6737;51.480;11.962;2023-05-01T06:27:49;15.53;;;8.73;;
13335;SDS011;6737;51.480;11.962;2023-05-01T06:30:15;12.80;;;8.07;;
13335;SDS011;6737;51.480;11.962;2023-05-01T06:32:44;12.67;;;8.03;;
13335;SDS011;6737;51.480;11.962;2023-05-01T06:35:11;14.57;;;9.03;;
13335;SDS011;6737;51.480;11.962;2023-05-01T06:37:37;14.97;;;8.90;;
13335;SDS011;6737;51.480;11.962;2023-05-01T06:40:06;12.40;;;8.70;;
13335;SDS011;6737;51.480;11.962;2023-05-01T06:42:34;14.17;;;8.63;;
13335;SDS011;6737;51.480;11.962;2023-05-01T06:45:01;13.03;;;7.90;;
13335;SDS011;6737;51.480;11.962;2023-05-01T06:47:28;14.50;;;8.03;;
13335;SDS011;6737;51.480;11.962;2023-05-01T06:49:54;12.40;;;8.00;;
13335;SDS011;6737;51.480;11.962;2023-05-01T06:52:19;14.40;;;8.43;;
13335;SDS011;6737;51.480;11.962;2023-05-01T06:54:45;13.53;;;7.93;;
13335;SDS011;6737;51.480;11.962;2023-05-01T06:57:11;14.90;;;7.83;;
13335;SDS011;6737;51.480;11.962;2023-05-01T06:59:36;12.03;;;7.20;;
13335;SDS011;6737;51.480;11.962;2023-05-01T07:02:02;10.93;;;7.00;;
13335;SDS011;6737;51.480;11.962;2023-05-01T07:04:29;14.43;;;9.40;;
13335;SDS011;6737;51.480;11.962;2023-05-01T07:06:56;12.23;;;7.87;;
13335;SDS011;6737;51.480;11.962;2023-05-01T07:09:21;15.37;;;7.43;;
13335;SDS011;6737;51.480;11.962;2023-05-01T07:11:47;12.70;;;7.83;;
13335;SDS011;6737;51.480;11.962;2023-05-01T07:14:13;13.27;;;7.80;;
13335;SDS011;6737;51.480;11.962;2023-05-01T07:16:39;13.97;;;7.73;;
13335;SDS011;6737;51.480;11.962;2023-05-01T07:19:05;13.23;;;7.80;;
13335;SDS011;6737;51.480;11.962;2023-05-01T07:21:31;16.77;;;7.90;;
13335;SDS011;6737;51.480;11.962;2023-05-01T07:23:57;13.53;;;7.47;;
13335;SDS011;6737;51.480;11.962;2023-05-01T07:26:24;13.60;;;7.90;;
13335;SDS011;6737;51.480;11.962;2023-05-01T07:28:51;16.43;;;9.43;;
13335;SDS011;6737;51.480;11.962;2023-05-01T07:31:17;14.90;;;10.60;;
13335;SDS011;6737;51.480;11.962;2023-05-01T07:33:43;14.10;;;9.43;;
13335;SDS011;6737;51.480;11.962;2023-05-01T07:36:09;14.10;;;8.83;;
13335;SDS011;6737;51.480;11.962;2023-05-01T07:38:34;15.43;;;9.43;;
13335;SDS011;6737;51.480;11.962;2023-05-01T07:41:00;13.37;;;8.57;;
13335;SDS011;6737;51.480;11.962;2023-05-01T07:43:26;15.43;;;8.53;;
13335;SDS011;6737;51.480;11.962;2023-05-01T07:45:55;14.43;;;8.87;;
13335;SDS011;6737;51.480;11.962;2023-05-01T07:48:26;12.30;;;8.73;;
13335;SDS011;6737;51.480;11.962;2023-05-01T07:50:52;12.10;;;7.90;;
13335;SDS011;6737;51.480;11.962;2023-05-01T07:53:19;12.57;;;8.00;;
13335;SDS011;6737;51.480;11.962;2023-05-01T07:55:46;11.30;;;7.47;;
13335;SDS011;6737;51.480;11.962;2023-05-01T07:58:13;11.50;;;8.27;;
13335;SDS011;6737;51.480;11.962;2023-05-01T08:00:38;11.90;;;7.80;;
13335;SDS011;6737;51.480;11.962;2023-05-01T08:03:04;14.23;;;8.70;;
13335;SDS011;6737;51.480;11.962;2023-05-01T08:05:30;12.60;;;8.00;;
13335;SDS011;6737;51.480;11.962;2023-05-01T08:07:56;13.23;;;8.37;;
13335;SDS011;6737;51.480;11.962;2023-05-01T08:10:22;12.47;;;8.40;;
13335;SDS011;6737;51.480;11.962;2023-05-01T08:12:48;16.90;;;8.87;;
13335;SDS011;6737;51.480;11.962;2023-05-01T08:15:14;12.20;;;8.00;;
13335;SDS011;6737;51.480;11.962;2023-05-01T08:17:39;16.57;;;8.77;;
13335;SDS011;6737;51.480;11.962;2023-05-01T08:20:05;11.83;;;8.27;;
13335;SDS011;6737;51.480;11.962;2023-05-01T08:22:32;14.80;;;8.90;;
13335;SDS011;6737;51.480;11.962;2023-05-01T08:24:57;14.00;;;8.23;;
13335;SDS011;6737;51.480;11.962;2023-05-01T08:27:23;13.83;;;7.60;;
13335;SDS011;6737;51.480;11.962;2023-05-01T08:29:50;12.17;;;7.13;;
13335;SDS011;6737;51.480;11.962;2023-05-01T08:32:17;10.77;;;7.17;;
13335;SDS011;6737;51.480;11.962;2023-05-01T08:34:42;12.63;;;7.97;;
13335;SDS011;6737;51.480;11.962;2023-05-01T08:37:08;12.57;;;7.83;;
13335;SDS011;6737;51.480;11.962;2023-05-01T08:39:34;12.97;;;8.67;;
13335;SDS011;6737;51.480;11.962;2023-05-01T08:42:00;16.43;;;8.60;;
13335;SDS011;6737;51.480;11.962;2023-05-01T08:44:27;12.90;;;8.63;;
13335;SDS011;6737;51.480;11.962;2023-05-01T08:49:32;16.70;;;9.27;;
13335;SDS011;6737;51.480;11.962;2023-05-01T08:52:00;14.17;;;8.73;;
13335;SDS011;6737;51.480;11.962;2023-05-01T08:54:28;14.63;;;9.23;;
13335;SDS011;6737;51.480;11.962;2023-05-01T08:56:56;12.03;;;8.23;;
13335;SDS011;6737;51.480;11.962;2023-05-01T08:59:33;17.83;;;8.90;;
13335;SDS011;6737;51.480;11.962;2023-05-01T09:02:00;16.60;;;8.73;;
13335;SDS011;6737;51.480;11.962;2023-05-01T09:04:38;12.77;;;9.10;;
13335;SDS011;6737;51.480;11.962;2023-05-01T09:07:05;14.03;;;8.90;;
13335;SDS011;6737;51.480;11.962;2023-05-01T09:09:32;15.00;;;9.53;;
13335;SDS011;6737;51.480;11.962;2023-05-01T09:12:41;13.27;;;8.90;;
13335;SDS011;6737;51.480;11.962;2023-05-01T09:14:54;13.97;;;9.73;;
13335;SDS011;6737;51.480;11.962;2023-05-01T09:17:21;14.53;;;9.83;;
13335;SDS011;6737;51.480;11.962;2023-05-01T09:19:48;15.50;;;8.77;;
13335;SDS011;6737;51.480;11.962;2023-05-01T09:22:14;14.07;;;9.47;;
13335;SDS011;6737;51.480;11.962;2023-05-01T09:24:42;13.97;;;9.50;;
13335;SDS011;6737;51.480;11.962;2023-05-01T09:27:10;13.67;;;8.87;;
13335;SDS011;6737;51.480;11.962;2023-05-01T09:34:52;12.23;;;8.20;;
13335;SDS011;6737;51.480;11.962;2023-05-01T09:37:26;12.65;;;8.07;;
13335;SDS011;6737;51.480;11.962;2023-05-01T09:42:32;15.80;;;8.20;;
13335;SDS011;6737;51.480;11.962;2023-05-01T09:45:00;13.93;;;8.48;;
13335;SDS011;6737;51.480;11.962;2023-05-01T09:47:27;15.95;;;8.55;;
13335;SDS011;6737;51.480;11.962;2023-05-01T09:49:57;13.63;;;8.70;;
13335;SDS011;6737;51.480;11.962;2023-05-01T09:52:27;15.13;;;9.38;;
13335;SDS011;6737;51.480;11.962;2023-05-01T09:55:12;13.80;;;8.47;;
13335;SDS011;6737;51.480;11.962;2023-05-01T09:57:42;13.60;;;8.57;;
13335;SDS011;6737;51.480;11.962;2023-05-01T10:00:09;13.63;;;9.38;;
13335;SDS011;6737;51.480;11.962;2023-05-01T10:02:36;14.35;;;9.82;;
13335;SDS011;6737;51.480;11.962;2023-05-01T10:05:04;13.20;;;9.38;;
13335;SDS011;6737;51.480;11.962;2023-05-01T10:07:31;14.45;;;9.38;;
13335;SDS011;6737;51.480;11.962;2023-05-01T10:09:57;19.20;;;9.02;;
13335;SDS011;6737;51.480;11.962;2023-05-01T10:12:24;15.38;;;9.27;;
13335;SDS011;6737;51.480;11.962;2023-05-01T10:14:51;14.10;;;9.82;;
13335;SDS011;6737;51.480;11.962;2023-05-01T10:17:18;11.52;;;8.43;;
13335;SDS011;6737;51.480;11.962;2023-05-01T10:19:44;12.00;;;8.40;;
13335;SDS011;6737;51.480;11.962;2023-05-01T10:22:11;14.05;;;8.65;;
13335;SDS011;6737;51.480;11.962;2023-05-01T10:24:37;11.35;;;7.90;;
13335;SDS011;6737;51.480;11.962;2023-05-01T10:27:07;12.85;;;8.48;;
13335;SDS011;6737;51.480;11.962;2023-05-01T10:29:34;12.98;;;8.00;;
13335;SDS011;6737;51.480;11.962;2023-05-01T10:32:03;11.68;;;7.63;;
13335;SDS011;6737;51.480;11.962;2023-05-01T10:34:38;11.43;;;7.28;;
13335;SDS011;6737;51.480;11.962;2023-05-01T10:37:12;11.38;;;6.95;;
13335;SDS011;6737;51.480;11.962;2023-05-01T10:39:42;9.68;;;7.07;;
13335;SDS011;6737;51.480;11.962;2023-05-01T10:42:09;9.63;;;6.82;;
13335;SDS011;6737;51.480;11.962;2023-05-01T10:44:38;9.82;;;6.10;;
13335;SDS011;6737;51.480;11.962;2023-05-01T10:50:13;9.70;;;6.03;;
13335;SDS011;6737;51.480;11.962;2023-05-01T10:55:54;9.52;;;6.40;;
13335;SDS011;6737;51.480;11.962;2023-05-01T11:04:04;9.07;;;5.88;;
13335;SDS011;6737;51.480;11.962;2023-05-01T11:06:35;8.95;;;5.93;;
13335;SDS011;6737;51.480;11.962;2023-05-01T11:10:04;7.90;;;6.10;;
13335;SDS011;6737;51.480;11.962;2023-05-01T11:12:01;7.03;;;5.10;;
13335;SDS011;6737;51.480;11.962;2023-05-01T11:14:27;12.07;;;5.90;;
13335;SDS011;6737;51.480;11.962;2023-05-01T11:20:04;8.07;;;5.15;;
13335;SDS011;6737;51.480;11.962;2023-05-01T11:22:30;9.52;;;5.40;;
13335;SDS011;6737;51.480;11.962;2023-05-01T11:24:57;9.10;;;4.85;;
13335;SDS011;6737;51.480;11.962;2023-05-01T11:27:24;11.32;;;5.80;;
13335;SDS011;6737;51.480;11.962;2023-05-01T11:29:52;6.88;;;4.80;;
13335;SDS011;6737;51.480;11.962;2023-05-01T11:32:19;6.97;;;4.40;;
13335;SDS011;6737;51.480;11.962;2023-05-01T11:34:51;7.93;;;4.80;;
13335;SDS011;6737;51.480;11.962;2023-05-01T11:37:18;9.23;;;5.07;;
13335;SDS011;6737;51.480;11.962;2023-05-01T11:40:03;8.15;;;5.28;;
13335;SDS011;6737;51.480;11.962;2023-05-01T11:42:42;7.28;;;4.88;;
13335;SDS011;6737;51.480;11.962;2023-05-01T11:45:08;7.68;;;5.15;;
13335;SDS011;6737;51.480;11.962;2023-05-01T11:47:35;9.05;;;4.75;;
13335;SDS011;6737;51.480;11.962;2023-05-01T11:50:01;6.47;;;4.32;;
13335;SDS011;6737;51.480;11.962;2023-05-01T11:52:28;9.55;;;4.90;;
13335;SDS011;6737;51.480;11.962;2023-05-01T11:54:54;7.03;;;4.53;;
13335;SDS011;6737;51.480;11.962;2023-05-01T11:57:20;7.18;;;4.10;;
13335;SDS011;6737;51.480;11.962;2023-05-01T11:59:46;5.95;;;4.28;;
13335;SDS011;6737;51.480;11.962;2023-05-01T12:02:18;7.25;;;4.30;;
13335;SDS011;6737;51.480;11.962;2023-05-01T12:04:44;6.75;;;4.65;;
13335;SDS011;6737;51.480;11.962;2023-05-01T12:07:32;8.73;;;4.90;;
13335;SDS011;6737;51.480;11.962;2023-05-01T12:10:00;7.82;;;4.30;;
13335;SDS011;6737;51.480;11.962;2023-05-01T12:12:26;8.00;;;4.32;;
13335;SDS011;6737;51.480;11.962;2023-05-01T12:14:52;8.85;;;4.63;;
13335;SDS011;6737;51.480;11.962;2023-05-01T12:17:18;6.25;;;4.10;;
13335;SDS011;6737;51.480;11.962;2023-05-01T12:19:48;7.18;;;4.20;;
13335;SDS011;6737;51.480;11.962;2023-05-01T12:22:14;9.07;;;4.40;;
13335;SDS011;6737;51.480;11.962;2023-05-01T12:24:50;5.40;;;3.95;;
13335;SDS011;6737;51.480;11.962;2023-05-01T12:27:17;6.53;;;3.90;;
13335;SDS011;6737;51.480;11.962;2023-05-01T12:29:44;5.90;;;3.65;;
13335;SDS011;6737;51.480;11.962;2023-05-01T12:32:12;5.70;;;3.90;;
13335;SDS011;6737;51.480;11.962;2023-05-01T12:34:39;5.13;;;3.40;;
13335;SDS011;6737;51.480;11.962;2023-05-01T12:37:06;6.13;;;3.85;;
13335;SDS011;6737;51.480;11.962;2023-05-01T12:39:35;6.35;;;4.53;;
13335;SDS011;6737;51.480;11.962;2023-05-01T12:42:03;6.15;;;4.00;;
13335;SDS011;6737;51.480;11.962;2023-05-01T12:44:37;6.38;;;4.10;;
13335;SDS011;6737;51.480;11.962;2023-05-01T12:47:04;6.35;;;4.03;;
13335;SDS011;6737;51.480;11.962;2023-05-01T12:49:32;5.68;;;3.53;;
13335;SDS011;6737;51.480;11.962;2023-05-01T12:52:01;6.43;;;4.22;;
13335;SDS011;6737;51.480;11.962;2023-05-01T12:54:38;6.78;;;3.90;;
13335;SDS011;6737;51.480;11.962;2023-05-01T12:57:12;6.25;;;3.83;;
13335;SDS011;6737;51.480;11.962;2023-05-01T12:59:39;5.80;;;3.45;;
13335;SDS011;6737;51.480;11.962;2023-05-01T13:02:07;5.10;;;3.63;;
13335;SDS011;6737;51.480;11.962;2023-05-01T13:04:37;6.03;;;3.67;;
13335;SDS011;6737;51.480;11.962;2023-05-01T13:09:36;5.22;;;3.30;;
13335;SDS011;6737;51.480;11.962;2023-05-01T13:12:02;6.85;;;3.95;;
13335;SDS011;6737;51.480;11.962;2023-05-01T13:14:36;6.53;;;3.80;;
13335;SDS011;6737;51.480;11.962;2023-05-01T13:17:04;6.43;;;3.80;;
13335;SDS011;6737;51.480;11.962;2023-05-01T13:19:31;5.53;;;3.85;;
13335;SDS011;6737;51.480;11.962;2023-05-01T13:21:57;5.07;;;3.30;;
13335;SDS011;6737;51.480;11.962;2023-05-01T13:24:23;4.93;;;3.50;;
13335;SDS011;6737;51.480;11.962;2023-05-01T13:27:04;5.57;;;3.20;;
13335;SDS011;6737;51.480;11.962;2023-05-01T13:29:30;5.70;;;3.90;;
13335;SDS011;6737;51.480;11.962;2023-05-01T13:31:57;7.50;;;3.63;;
13335;SDS011;6737;51.480;11.962;2023-05-01T13:34:41;4.60;;;3.40;;
13335;SDS011;6737;51.480;11.962;2023-05-01T13:37:08;4.97;;;3.38;;
13335;SDS011;6737;51.480;11.962;2023-05-01T13:39:38;5.28;;;3.75;;
13335;SDS011;6737;51.480;11.962;2023-05-01T13:42:12;8.90;;;3.72;;
13335;SDS011;6737;51.480;11.962;2023-05-01T13:44:50;4.55;;;3.40;;
13335;SDS011;6737;51.480;11.962;2023-05-01T13:47:17;5.15;;;3.33;;
13335;SDS011;6737;51.480;11.962;2023-05-01T13:49:43;5.18;;;3.60;;
13335;SDS011;6737;51.480;11.962;2023-05-01T13:52:15;4.78;;;3.25;;
13335;SDS011;6737;51.480;11.962;2023-05-01T13:54:43;3.90;;;3.00;;
13335;SDS011;6737;51.480;11.962;2023-05-01T13:57:10;5.70;;;3.30;;
13335;SDS011;6737;51.480;11.962;2023-05-01T13:59:40;4.75;;;3.13;;
13335;SDS011;6737;51.480;11.962;2023-05-01T14:02:24;6.63;;;3.42;;
13335;SDS011;6737;51.480;11.962;2023-05-01T14:04:52;5.18;;;3.60;;
13335;SDS011;6737;51.480;11.962;2023-05-01T14:07:21;4.57;;;3.58;;
13335;SDS011;6737;51.480;11.962;2023-05-01T14:09:57;4.95;;;3.50;;
13335;SDS011;6737;51.480;11.962;2023-05-01T14:12:30;5.88;;;3.60;;
13335;SDS011;6737;51.480;11.962;2023-05-01T14:14:57;7.03;;;3.38;;
13335;SDS011;6737;51.480;11.962;2023-05-01T14:17:31;6.32;;;3.67;;
13335;SDS011;6737;51.480;11.962;2023-05-01T14:19:58;4.00;;;3.22;;
13335;SDS011;6737;51.480;11.962;2023-05-01T14:22:28;4.90;;;3.13;;
13335;SDS011;6737;51.480;11.962;2023-05-01T14:24:56;6.40;;;3.42;;
13335;SDS011;6737;51.480;11.962;2023-05-01T14:27:22;6.40;;;3.13;;
13335;SDS011;6737;51.480;11.962;2023-05-01T14:29:48;6.10;;;3.10;;
13335;SDS011;6737;51.480;11.962;2023-05-01T14:32:14;6.72;;;3.92;;
13335;SDS011;6737;51.480;11.962;2023-05-01T14:34:40;8.20;;;4.32;;
13335;SDS011;6737;51.480;11.962;2023-05-01T14:37:09;8.90;;;3.75;;
13335;SDS011;6737;51.480;11.962;2023-05-01T14:39:39;7.50;;;4.03;;
13335;SDS011;6737;51.480;11.962;2023-05-01T14:42:04;5.63;;;3.42;;
13335;SDS011;6737;51.480;11.962;2023-05-01T14:44:30;6.63;;;3.30;;
13335;SDS011;6737;51.480;11.962;2023-05-01T14:46:56;6.38;;;3.50;;
13335;SDS011;6737;51.480;11.962;2023-05-01T14:49:23;5.25;;;3.30;;
13335;SDS011;6737;51.480;11.962;2023-05-01T14:51:50;10.98;;;3.45;;
13335;SDS011;6737;51.480;11.962;2023-05-01T14:54:18;6.60;;;3.67;;
13335;SDS011;6737;51.480;11.962;2023-05-01T14:56:45;8.70;;;3.60;;
13335;SDS011;6737;51.480;11.962;2023-05-01T14:59:12;5.45;;;3.45;;
13335;SDS011;6737;51.480;11.962;2023-05-01T15:01:38;5.00;;;3.22;;
13335;SDS011;6737;51.480;11.962;2023-05-01T15:04:04;6.47;;;3.40;;
13335;SDS011;6737;51.480;11.962;2023-05-01T15:06:34;5.07;;;3.22;;
13335;SDS011;6737;51.480;11.962;2023-05-01T15:09:00;6.38;;;3.30;;
13335;SDS011;6737;51.480;11.962;2023-05-01T15:11:28;5.53;;;3.30;;
13335;SDS011;6737;51.480;11.962;2023-05-01T15:13:54;5.72;;;3.53;;
13335;SDS011;6737;51.480;11.962;2023-05-01T15:16:20;5.55;;;3.40;;
13335;SDS011;6737;51.480;11.962;2023-05-01T15:18:46;4.15;;;3.33;;